Time;durP1;ratioP1;P1;durP2;ratioP2;P2;SDS_P1;SDS_P2;PMS_P1;PMS_P2;Temp;Humidity;BMP_temperature;BMP_pressure;BME280_temperature;BME280_humidity;BME280_pressure;Samples;Min_cycle;Max_cycle;Signal;HPM_P1;HPM_P2
2023/10/13 00:01:59;;;;;;;23.42;18.25;;;;;;;;;;5065096;28;20105;-62
2023/10/13 00:04:26;;;;;;;23.38;17.67;;;;;;;;;;5071463;28;20489;-62
2023/10/13 00:06:56;;;;;;;35.17;23.20;;;;;;;;;;5065435;28;20056;-62
2023/10/13 00:09:25;;;;;;;24.58;18.95;;;;;;;;;;5070380;28;20423;-61
2023/10/13 00:11:52;;;;;;;29.17;23.27;;;;;;;;;;5065570;28;20048;-62
2023/10/13 00:14:21;;;;;;;27.40;19.85;;;;;;;;;;5066150;28;20017;-62
2023/10/13 00:17:04;;;;;;;58.75;50.78;;;;;;;;;;5065761;28;20028;-61
2023/10/13 00:19:37;;;;;;;60.00;43.97;;;;;;;;;;5064956;28;20112;-61
2023/10/13 00:22:10;;;;;;;23.60;18.55;;;;;;;;;;5052738;28;20047;-62
2023/10/13 00:24:42;;;;;;;20.92;16.67;;;;;;;;;;5069601;28;20027;-62
2023/10/13 00:27:14;;;;;;;19.17;14.35;;;;;;;;;;5070342;28;20051;-62
2023/10/13 00:29:46;;;;;;;23.58;18.20;;;;;;;;;;5069487;28;20419;-62
2023/10/13 00:32:12;;;;;;;18.33;16.35;;;;;;;;;;5066476;28;20470;-62
2023/10/13 00:34:38;;;;;;;25.55;17.20;;;;;;;;;;5050108;28;20526;-62
2023/10/13 00:37:17;;;;;;;26.77;21.77;;;;;;;;;;5049487;28;20021;-62
2023/10/13 00:39:46;;;;;;;48.67;38.33;;;;;;;;;;5051431;28;20028;-62
2023/10/13 00:42:19;;;;;;;44.40;32.63;;;;;;;;;;5043335;28;20515;-62
2023/10/13 00:44:49;;;;;;;20.03;16.40;;;;;;;;;;5034741;28;20026;-62
2023/10/13 00:47:32;;;;;;;22.63;18.20;;;;;;;;;;5065064;28;20275;-62
2023/10/13 00:49:58;;;;;;;20.43;16.00;;;;;;;;;;5050335;28;20108;-62
2023/10/13 00:52:25;;;;;;;20.33;15.73;;;;;;;;;;5044583;28;20261;-62
2023/10/13 00:54:51;;;;;;;25.65;21.13;;;;;;;;;;5048653;28;20021;-63
2023/10/13 00:57:26;;;;;;;20.40;15.27;;;;;;;;;;5050272;28;20466;-62
2023/10/13 00:59:55;;;;;;;19.65;16.02;;;;;;;;;;5052183;28;20409;-62
2023/10/13 01:05:33;;;;;;;25.98;20.35;;;;;;;;;;5045791;28;20039;-62
2023/10/13 01:08:03;;;;;;;20.77;16.90;;;;;;;;;;5052402;28;20041;-62
2023/10/13 01:10:32;;;;;;;19.90;16.70;;;;;;;;;;5049357;28;20471;-62
2023/10/13 01:13:02;;;;;;;20.15;17.92;;;;;;;;;;5033990;28;20033;-62
2023/10/13 01:15:33;;;;;;;17.70;14.80;;;;;;;;;;5050710;28;20033;-62
2023/10/13 01:18:13;;;;;;;21.65;15.98;;;;;;;;;;5044191;28;20052;-62
2023/10/13 01:20:52;;;;;;;20.38;14.93;;;;;;;;;;5038902;28;20013;-62
2023/10/13 01:23:28;;;;;;;22.58;17.17;;;;;;;;;;5059433;28;20044;-62
2023/10/13 01:25:54;;;;;;;16.42;13.82;;;;;;;;;;5050560;28;20043;-62
2023/10/13 01:28:21;;;;;;;18.20;13.80;;;;;;;;;;5050070;28;20052;-62
2023/10/13 01:30:51;;;;;;;21.55;14.77;;;;;;;;;;5045583;28;20029;-62
2023/10/13 01:33:27;;;;;;;19.40;14.30;;;;;;;;;;5050483;28;20029;-62
2023/10/13 01:35:55;;;;;;;15.05;13.00;;;;;;;;;;5070749;28;20393;-62
2023/10/13 01:38:21;;;;;;;15.02;12.45;;;;;;;;;;5070183;28;20029;-62
2023/10/13 01:40:51;;;;;;;16.65;12.57;;;;;;;;;;5060575;28;20033;-62
2023/10/13 01:43:17;;;;;;;13.65;11.98;;;;;;;;;;5071897;28;20025;-62
2023/10/13 01:49:23;;;;;;;19.73;11.43;;;;;;;;;;5068782;28;20098;-63
2023/10/13 01:51:49;;;;;;;15.25;12.40;;;;;;;;;;5052170;28;20020;-62
2023/10/13 01:54:15;;;;;;;14.23;11.90;;;;;;;;;;5070849;28;20123;-62
2023/10/13 01:56:44;;;;;;;16.75;11.98;;;;;;;;;;5063189;28;20414;-62
2023/10/13 01:59:13;;;;;;;13.00;11.27;;;;;;;;;;5069287;28;20016;-62
2023/10/13 02:01:41;;;;;;;16.10;12.32;;;;;;;;;;5068490;28;20119;-62
2023/10/13 02:04:07;;;;;;;14.02;12.07;;;;;;;;;;5059617;28;20052;-62
2023/10/13 02:06:36;;;;;;;13.95;11.82;;;;;;;;;;5069624;28;20469;-62
2023/10/13 02:09:16;;;;;;;15.98;12.05;;;;;;;;;;5073124;28;20024;-62
2023/10/13 02:11:45;;;;;;;13.55;11.50;;;;;;;;;;5054866;28;20029;-62
2023/10/13 02:14:11;;;;;;;14.30;12.80;;;;;;;;;;5052675;28;20021;-62
2023/10/13 02:16:38;;;;;;;17.17;12.10;;;;;;;;;;5065004;28;20029;-62
2023/10/13 02:19:04;;;;;;;15.02;12.60;;;;;;;;;;5069006;28;20481;-62
2023/10/13 02:21:38;;;;;;;16.15;13.05;;;;;;;;;;5066582;28;20123;-62
2023/10/13 02:24:05;;;;;;;15.25;12.75;;;;;;;;;;5073172;28;20015;-62
2023/10/13 02:26:31;;;;;;;16.77;12.90;;;;;;;;;;5054401;28;20033;-63
2023/10/13 02:29:06;;;;;;;16.13;13.35;;;;;;;;;;5058762;28;20107;-61
2023/10/13 02:31:33;;;;;;;15.63;13.88;;;;;;;;;;5065080;28;20052;-62
2023/10/13 02:34:00;;;;;;;14.43;12.93;;;;;;;;;;5071743;28;20053;-62
2023/10/13 02:36:36;;;;;;;15.02;13.43;;;;;;;;;;5069686;28;20047;-62
2023/10/13 02:39:08;;;;;;;15.35;13.10;;;;;;;;;;5067690;28;20025;-61
2023/10/13 02:41:37;;;;;;;17.50;13.57;;;;;;;;;;5054415;28;20031;-61
2023/10/13 02:44:07;;;;;;;16.30;13.68;;;;;;;;;;5052477;28;20013;-62
2023/10/13 02:46:36;;;;;;;17.95;12.90;;;;;;;;;;5072162;28;20020;-62
2023/10/13 02:49:11;;;;;;;15.13;12.57;;;;;;;;;;5073124;28;20021;-62
2023/10/13 02:51:43;;;;;;;13.45;12.05;;;;;;;;;;5068285;28;20029;-61
2023/10/13 02:54:10;;;;;;;15.65;12.85;;;;;;;;;;5071751;28;20064;-61
2023/10/13 02:56:36;;;;;;;15.50;12.77;;;;;;;;;;5062617;28;20066;-61
2023/10/13 02:59:06;;;;;;;13.38;12.07;;;;;;;;;;5069285;28;20649;-62
2023/10/13 03:01:35;;;;;;;13.40;10.93;;;;;;;;;;5067097;28;20032;-61
2023/10/13 03:04:08;;;;;;;13.57;12.13;;;;;;;;;;5034788;28;20478;-61
2023/10/13 03:06:40;;;;;;;14.98;11.70;;;;;;;;;;5037628;28;20363;-61
2023/10/13 03:11:59;;;;;;;13.05;11.85;;;;;;;;;;5054041;28;20032;-62
2023/10/13 03:16:55;;;;;;;14.57;12.55;;;;;;;;;;5072434;28;20033;-61
2023/10/13 03:19:22;;;;;;;17.83;12.48;;;;;;;;;;5071316;28;20374;-62
2023/10/13 03:21:54;;;;;;;13.65;11.95;;;;;;;;;;5072252;28;20090;-62
2023/10/13 03:24:33;;;;;;;16.05;12.70;;;36.60;99.90;;;;;;5060168;28;20112;-62
2023/10/13 03:27:08;;;;;;;13.63;11.93;;;36.40;99.90;;;;;;5058456;28;20166;-62
2023/10/13 03:29:35;;;;;;;15.60;11.80;;;36.20;99.90;;;;;;5068355;28;20085;-61
2023/10/13 03:32:11;;;;;;;14.25;12.57;;;36.20;99.90;;;;;;5071538;28;20026;-61
2023/10/13 03:37:22;;;;;;;14.57;11.43;;;36.20;99.90;;;;;;5059582;28;20028;-62
2023/10/13 03:39:48;;;;;;;15.57;12.80;;;36.20;99.90;;;;;;5063378;28;20039;-61
2023/10/13 03:42:21;;;;;;;15.98;11.73;;;36.20;99.90;;;;;;5064876;28;20021;-62
2023/10/13 03:44:47;;;;;;;18.33;13.00;;;36.20;99.90;;;;;;5071226;28;20078;-61
2023/10/13 03:47:26;;;;;;;13.75;12.05;;;36.20;99.90;;;;;;5068833;28;20048;-61
2023/10/13 03:50:14;;;;;;;14.32;12.75;;;36.20;99.90;;;;;;5060431;28;20331;-62
2023/10/13 03:52:38;;;;;;;15.52;12.57;;;36.10;99.90;;;;;;5064743;28;20036;-61
2023/10/13 03:55:17;;;;;;;14.00;11.98;;;36.20;99.90;;;;;;5071872;28;20101;-62
2023/10/13 03:57:45;;;;;;;14.95;12.50;;;36.20;99.90;;;;;;5046768;28;20025;-61
2023/10/13 04:00:21;;;;;;;12.65;11.30;;;36.20;99.90;;;;;;5071812;28;20092;-62
2023/10/13 04:02:53;;;;;;;18.75;12.82;;;36.20;99.90;;;;;;5067703;28;20029;-62
2023/10/13 04:05:35;;;;;;;22.30;12.80;;;36.20;99.90;;;;;;5053754;28;20024;-60
2023/10/13 04:30:23;;;;;;;21.40;14.35;;;36.10;99.90;;;;;;5076200;28;20146;-63
2023/10/13 04:32:38;;;;;;;19.02;14.10;;;36.20;99.90;;;;;;5058815;28;20037;-63
2023/10/13 04:35:47;;;;;;;16.27;14.20;;;36.20;99.90;;;;;;5074832;28;20032;-63
2023/10/13 04:38:10;;;;;;;16.00;14.30;;;36.20;99.90;;;;;;5064672;28;20386;-63
2023/10/13 04:40:58;;;;;;;20.98;14.77;;;36.10;99.90;;;;;;5075911;28;20070;-63
2023/10/13 04:43:44;;;;;;;18.20;15.48;;;36.10;99.90;;;;;;5063131;28;20443;-63
2023/10/13 04:46:35;;;;;;;20.67;14.75;;;36.10;99.90;;;;;;5072815;28;20024;-64
2023/10/13 04:49:09;;;;;;;19.33;14.60;;;36.10;99.90;;;;;;5075615;28;20028;-63
2023/10/13 04:51:58;;;;;;;17.45;15.27;;;36.10;99.90;;;;;;5071418;28;20032;-63
2023/10/13 04:54:45;;;;;;;18.58;15.38;;;36.20;99.90;;;;;;5071242;28;20033;-64
2023/10/13 06:30:06;;;;;;;28.33;21.90;;;36.00;99.90;;;;;;5067502;28;20459;-74
2023/10/13 06:32:33;;;;;;;28.95;22.85;;;36.10;99.90;;;;;;5065140;28;20072;-75
2023/10/13 06:35:04;;;;;;;32.03;22.77;;;36.00;99.90;;;;;;5072086;28;20045;-74
2023/10/13 06:37:30;;;;;;;30.77;22.63;;;36.00;99.90;;;;;;5062135;28;20021;-74
2023/10/13 06:40:25;;;;;;;26.55;21.58;;;36.00;99.90;;;;;;5073451;28;20060;-74
2023/10/13 06:42:55;;;;;;;27.08;21.98;;;36.00;99.90;;;;;;5066163;28;20115;-74
2023/10/13 06:45:21;;;;;;;28.42;21.33;;;36.00;99.90;;;;;;5055237;28;20498;-74
2023/10/13 06:47:52;;;;;;;30.92;22.73;;;36.10;99.90;;;;;;5041607;28;20029;-74
2023/10/13 06:50:24;;;;;;;31.95;22.75;;;36.10;99.90;;;;;;5066861;28;20012;-75
2023/10/13 06:53:03;;;;;;;27.23;21.33;;;36.00;99.90;;;;;;5067083;28;20874;-74
2023/10/13 06:55:34;;;;;;;28.95;21.05;;;36.10;99.90;;;;;;5054212;28;20029;-74
2023/10/13 06:58:00;;;;;;;31.15;20.75;;;36.10;99.90;;;;;;5050278;28;20525;-70
2023/10/13 07:00:34;;;;;;;22.70;18.83;;;36.00;99.90;;;;;;5045792;28;20153;-67
2023/10/13 07:03:17;;;;;;;25.75;19.92;;;36.00;99.90;;;;;;5060896;28;20425;-66
2023/10/13 07:05:44;;;;;;;29.45;19.83;;;36.10;99.90;;;;;;5062075;28;20025;-64
2023/10/13 07:08:31;;;;;;;22.90;19.27;;;36.00;99.90;;;;;;5066428;28;20178;-73
2023/10/13 07:11:02;;;;;;;28.58;21.02;;;36.00;99.90;;;;;;5062811;28;20039;-70
2023/10/13 07:13:36;;;;;;;29.40;21.35;;;36.10;99.90;;;;;;5059953;28;20111;-69
2023/10/13 07:16:09;;;;;;;24.58;19.65;;;36.00;99.90;;;;;;5055109;28;20032;-64
2023/10/13 07:18:42;;;;;;;24.67;19.20;;;36.10;99.90;;;;;;5067016;28;20055;-67
2023/10/13 07:21:12;;;;;;;24.52;19.55;;;36.10;99.90;;;;;;5064789;28;20553;-64
2023/10/13 07:23:38;;;;;;;23.52;19.05;;;36.00;99.90;;;;;;5067084;28;20059;-61
2023/10/13 07:26:08;;;;;;;25.65;19.05;;;36.10;99.90;;;;;;5060949;28;20090;-64
2023/10/13 07:28:36;;;;;;;24.80;18.52;;;36.20;99.90;;;;;;5061794;28;20103;-62
2023/10/13 07:33:34;;;;;;;23.05;17.55;;;36.10;99.90;;;;;;5057063;28;20059;-62
2023/10/13 07:36:27;;;;;;;21.13;16.98;;;36.20;99.90;;;;;;5069570;28;20047;-72
2023/10/13 07:41:37;;;;;;;18.60;16.75;;;36.20;99.90;;;;;;5061502;28;20028;-63
2023/10/13 07:44:04;;;;;;;19.52;16.42;;;36.10;99.90;;;;;;5069618;28;20044;-64
2023/10/13 07:46:32;;;;;;;19.08;16.85;;;36.20;99.90;;;;;;5059219;28;20116;-62
2023/10/13 07:49:14;;;;;;;19.73;16.55;;;36.30;99.90;;;;;;5063789;28;20044;-65
2023/10/13 07:51:45;;;;;;;22.10;17.23;;;36.20;99.90;;;;;;5063032;28;20024;-64
2023/10/13 07:54:21;;;;;;;20.20;17.73;;;36.30;99.90;;;;;;5045644;28;20063;-63
2023/10/13 07:56:47;;;;;;;18.13;16.00;;;36.40;99.90;;;;;;5061509;28;20018;-70
2023/10/13 07:59:14;;;;;;;21.55;16.60;;;36.40;99.90;;;;;;5058975;28;20024;-60
2023/10/13 08:01:43;;;;;;;21.88;16.33;;;36.30;99.90;;;;;;5057473;28;20020;-64
2023/10/13 08:04:12;;;;;;;19.58;16.50;;;36.30;99.90;;;;;;5058947;28;20029;-70
2023/10/13 08:06:43;;;;;;;18.70;15.60;;;36.30;99.90;;;;;;5062001;28;20056;-69
2023/10/13 08:09:29;;;;;;;24.88;17.40;;;36.30;99.90;;;;;;5063289;28;20033;-78
2023/10/13 08:11:55;;;;;;;20.90;16.55;;;36.40;99.90;;;;;;5059640;28;20033;-77
2023/10/13 08:14:28;;;;;;;19.70;15.63;;;36.40;99.90;;;;;;5060391;28;20391;-81
2023/10/13 08:16:59;;;;;;;21.83;15.27;;;36.40;99.90;;;;;;5063145;28;20021;-69
2023/10/13 08:19:39;;;;;;;19.00;15.63;;;36.40;99.90;;;;;;5064686;28;20032;-67
2023/10/13 08:42:52;;;;;;;19.00;15.05;;;36.60;99.90;;;;;;5061040;28;20040;-65
2023/10/13 08:48:12;;;;;;;22.20;18.17;;;36.70;99.90;;;;;;5062242;28;20048;-62
2023/10/13 08:53:33;;;;;;;25.60;20.15;;;36.70;99.90;;;;;;5062290;28;20494;-66
2023/10/13 09:01:48;;;;;;;20.58;16.52;;;36.90;99.90;;;;;;5060288;28;20041;-70
2023/10/13 09:04:22;;;;;;;23.30;17.55;;;36.80;99.90;;;;;;5061545;28;20021;-65
2023/10/13 09:07:21;;;;;;;18.92;16.50;;;36.90;99.90;;;;;;5060647;28;20094;-69
2023/10/13 09:15:59;;;;;;;22.55;15.82;;;36.90;99.90;;;;;;5062178;28;20032;-61
2023/10/13 09:18:38;;;;;;;16.70;13.27;;;37.00;99.90;;;;;;5065951;28;20036;-65
2023/10/13 09:22:04;;;;;;;17.70;14.13;;;36.90;99.90;;;;;;5069248;28;20419;-57
2023/10/13 09:24:17;;;;;;;22.05;14.85;;;36.90;99.90;;;;;;5041647;28;20028;-58
2023/10/13 09:26:43;;;;;;;20.25;14.90;;;;;;;;;;5073214;28;20074;-57
2023/10/13 09:29:18;;;;;;;17.75;12.52;;;;;;;;;;5053887;28;20025;-58
2023/10/13 09:31:50;;;;;;;14.60;12.23;;;;;;;;;;5064772;28;20024;-58
2023/10/13 09:34:23;;;;;;;18.33;13.75;;;;;;;;;;5064577;28;20040;-67
2023/10/13 09:36:55;;;;;;;17.10;12.80;;;;;;;;;;5071074;28;20028;-72
2023/10/13 09:39:34;;;;;;;19.70;13.50;;;;;;;;;;5068787;28;20082;-69
2023/10/13 09:42:00;;;;;;;16.08;12.27;;;;;;;;;;5065641;28;20032;-76
2023/10/13 09:44:31;;;;;;;16.48;13.57;;;;;;;;;;5065339;28;20029;-70
2023/10/13 09:47:16;;;;;;;19.65;14.20;;;;;;;;;;5054711;28;20024;-67
2023/10/13 09:49:51;;;;;;;13.40;11.73;;;;;;;;;;5065845;28;20036;-65
2023/10/13 09:52:24;;;;;;;15.13;12.93;;;;;;;;;;5063737;28;20032;-63
2023/10/13 09:55:11;;;;;;;16.67;12.75;;;;;;;;;;5059713;28;20025;-65
2023/10/13 09:57:44;;;;;;;14.70;12.55;;;;;;;;;;5063944;28;20563;-75
2023/10/13 10:00:35;;;;;;;16.93;14.13;;;;;;;;;;5068701;28;20028;-64
2023/10/13 10:03:14;;;;;;;14.73;12.98;;;;;;;;;;5060262;28;20482;-67
2023/10/13 10:05:41;;;;;;;14.57;12.85;;;;;;;;;;5053956;28;20036;-60
2023/10/13 10:08:10;;;;;;;18.15;12.90;;;;;;;;;;5063020;28;20024;-60
2023/10/13 10:10:57;;;;;;;16.55;14.38;;;;;;;;;;5062765;28;20017;-68
2023/10/13 10:13:34;;;;;;;20.23;14.90;;;;;;;;;;5069951;28;20219;-63
2023/10/13 10:16:19;;;;;;;17.20;13.10;;;;;;;;;;5052422;28;20052;-63
2023/10/13 10:18:45;;;;;;;15.20;12.55;;;;;;;;;;5072850;28;20028;-64
2023/10/13 10:21:15;;;;;;;15.43;12.18;;;;;;;;;;5073674;28;20474;-63
2023/10/13 10:23:43;;;;;;;13.57;12.18;;;;;;;;;;5055142;28;20028;-63
2023/10/13 10:26:20;;;;;;;15.75;13.43;;;;;;;;;;5055613;28;20075;-63
2023/10/13 10:28:46;;;;;;;15.35;13.75;;;;;;;;;;5073343;28;20033;-64
2023/10/13 10:31:21;;;;;;;16.65;14.85;;;;;;;;;;5072000;28;20029;-61
2023/10/13 10:33:51;;;;;;;15.10;13.55;;;;;;;;;;5059798;28;20036;-62
2023/10/13 10:36:36;;;;;;;17.80;13.65;;;;;;;;;;5073387;28;20772;-62
2023/10/13 10:39:05;;;;;;;19.13;12.70;;;;;;;;;;5060861;28;20066;-62
2023/10/13 10:44:15;;;;;;;18.35;13.63;;;;;;;;;;5073231;28;20050;-62
2023/10/13 10:46:51;;;;;;;16.40;12.35;;;;;;;;;;5072973;28;20066;-63
2023/10/13 10:49:27;;;;;;;16.55;11.63;;;;;;;;;;5072722;28;20029;-62
2023/10/13 10:51:57;;;;;;;18.02;12.55;;;;;;;;;;5068912;28;20031;-62
2023/10/13 10:54:30;;;;;;;16.20;12.25;;;;;;;;;;5055128;28;20059;-63
2023/10/13 10:56:56;;;;;;;14.93;12.40;;;;;;;;;;5073333;28;20025;-62
2023/10/13 10:59:25;;;;;;;16.55;10.95;;;;;;;;;;5066498;28;20028;-62
2023/10/13 11:01:51;;;;;;;13.00;11.52;;;;;;;;;;5069530;28;20024;-62
2023/10/13 11:04:33;;;;;;;16.45;12.57;;;;;;;;;;5072703;28;20031;-62
2023/10/13 11:06:59;;;;;;;16.33;11.75;;;;;;;;;;5072904;28;20025;-63
2023/10/13 11:09:36;;;;;;;15.52;12.02;;;;;;;;;;5067262;28;20469;-63
2023/10/13 11:12:13;;;;;;;13.98;11.82;;;;;;;;;;5069257;28;20039;-63
2023/10/13 11:14:40;;;;;;;15.55;11.02;;;;;;;;;;5054659;28;20020;-63
2023/10/13 11:17:21;;;;;;;14.13;9.68;;;;;;;;;;5069751;28;20524;-63
2023/10/13 11:19:47;;;;;;;15.82;11.85;;;;;;;;;;5072045;28;20390;-63
2023/10/13 11:22:52;;;;;;;16.05;11.70;;;;;;;;;;5072691;28;20023;-63
2023/10/13 11:25:09;;;;;;;13.10;10.63;;;;;;;;;;5055955;28;20103;-63
2023/10/13 11:30:25;;;;;;;12.90;10.43;;;;;;;;;;5072590;28;20025;-62
2023/10/13 11:33:08;;;;;;;15.10;10.80;;;;;;;;;;5072462;28;20028;-63
2023/10/13 11:41:14;;;;;;;13.82;9.90;;;;;;;;;;5071386;28;20043;-62
2023/10/13 11:43:52;;;;;;;14.27;8.90;;;;;;;;;;5068918;28;20024;-63
2023/10/13 11:51:44;;;;;;;11.30;8.43;;;;;;;;;;5072363;28;20036;-63
2023/10/13 11:54:11;;;;;;;10.30;8.45;;;;;;;;;;5067156;28;20013;-63
2023/10/13 11:56:38;;;;;;;12.30;7.80;;;;;;;;;;5065801;28;20500;-63
2023/10/13 11:59:05;;;;;;;10.10;7.40;;;;;;;;;;5054893;28;21707;-63
2023/10/13 12:07:20;;;;;;;;;;;;;;;;;;5072273;28;20503;-63
2023/10/13 12:12:22;;;;;;;9.68;6.45;;;;;;;;;;5062458;28;20024;-63
2023/10/13 12:14:55;;;;;;;10.20;7.10;;;;;;;;;;5072016;28;20029;-63
2023/10/13 12:17:25;;;;;;;11.23;7.05;;;;;;;;;;5071736;28;20405;-63
2023/10/13 12:19:57;;;;;;;8.02;6.90;;;;;;;;;;5071996;28;20382;-63
2023/10/13 12:22:35;;;;;;;9.70;7.07;;;;;;;;;;5071394;28;20024;-63
2023/10/13 12:25:04;;;;;;;10.68;7.45;;;;;;;;;;5070392;28;20021;-63
2023/10/13 12:27:45;;;;;;;7.85;6.78;;;;;;;;;;5062700;28;20025;-63
2023/10/13 12:51:07;;;;;;;11.00;7.63;;;;;;;;;;5063835;28;20032;-67
2023/10/13 12:53:32;;;;;;;9.50;7.88;;;;;;;;;;5066103;28;20398;-65
2023/10/13 12:56:04;;;;;;;11.05;7.03;;;;;;;;;;5073356;28;20462;-63
2023/10/13 12:58:31;;;;;;;13.07;7.35;;;;;;;;;;5069709;28;20024;-63
2023/10/13 13:01:06;;;;;;;9.52;7.97;;;;;;;;;;5065249;28;20481;-62
2023/10/13 13:03:35;;;;;;;12.80;6.82;;;;;;;;;;5051666;28;20021;-62
2023/10/13 13:06:07;;;;;;;16.60;7.85;;;;;;;;;;5065458;28;20025;-61
2023/10/13 13:08:36;;;;;;;14.75;7.78;;;;;;;;;;5067845;28;20378;-64
2023/10/13 13:11:02;;;;;;;9.65;7.32;;;;;;;;;;5071472;28;20028;-62
2023/10/13 13:13:28;;;;;;;11.25;7.90;;;;;;;;;;5073437;28;20028;-60
2023/10/13 13:15:54;;;;;;;10.35;7.32;;;;;;;;;;5069521;28;20439;-60
2023/10/13 13:18:20;;;;;;;9.38;7.57;;;;;;;;;;5050842;28;20085;-61
2023/10/13 13:20:53;;;;;;;8.68;6.90;;;;;;;;;;5062535;28;20029;-61
2023/10/13 13:23:19;;;;;;;9.27;7.05;;;;;;;;;;5071272;28;20020;-64
2023/10/13 13:25:48;;;;;;;11.75;7.43;;;;;;;;;;5063985;28;20032;-65
2023/10/13 13:28:15;;;;;;;12.93;7.53;;;;;;;;;;5053765;28;20048;-63
2023/10/13 13:30:50;;;;;;;21.77;8.23;;;;;;;;;;5066949;28;20035;-59
2023/10/13 13:33:16;;;;;;;11.00;7.97;;;;;;;;;;5070394;28;20036;-60
2023/10/13 13:35:48;;;;;;;9.60;7.45;;;;;;;;;;5071358;28;20127;-63
2023/10/13 13:38:27;;;;;;;9.65;7.57;;;;;;;;;;5067702;28;20047;-63
2023/10/13 13:40:56;;;;;;;11.95;7.00;;;;;;;;;;5058733;28;20045;-61
2023/10/13 13:43:37;;;;;;;11.75;8.02;;;;;;;;;;5067448;28;20039;-61
2023/10/13 13:46:03;;;;;;;8.95;7.20;;;;;;;;;;5053304;28;20119;-62
2023/10/13 13:48:30;;;;;;;12.63;7.78;;;;;;;;;;5072869;28;20049;-64
2023/10/13 13:51:04;;;;;;;9.80;7.35;;;;;;;;;;5066871;28;20091;-58
2023/10/13 13:53:34;;;;;;;9.60;7.32;;;;;;;;;;5071025;28;20020;-61
2023/10/13 13:56:01;;;;;;;11.60;7.88;;;;;;;;;;5071468;28;20017;-63
2023/10/13 13:58:27;;;;;;;11.75;7.90;;;;;;;;;;5060234;28;20039;-63
2023/10/13 14:01:00;;;;;;;10.60;7.35;;;;;;;;;;5062097;28;20036;-63
2023/10/13 14:03:32;;;;;;;11.07;6.93;;;;;;;;;;5067924;28;20020;-61
2023/10/13 14:05:59;;;;;;;12.45;7.57;;;;;;;;;;5054923;28;20024;-61
2023/10/13 14:08:25;;;;;;;10.93;8.30;;;;;;;;;;5071157;28;20486;-63
2023/10/13 14:11:13;;;;;;;9.10;7.05;;;;;;;;;;5067321;28;20048;-70
2023/10/13 14:13:48;;;;;;;14.23;8.23;;;;;;;;;;5069189;28;20020;-68
2023/10/13 14:16:18;;;;;;;11.52;7.78;;;;;;;;;;5063136;28;20107;-66
2023/10/13 14:18:47;;;;;;;9.02;7.72;;;;;;;;;;5058454;28;20024;-66
2023/10/13 14:21:16;;;;;;;10.18;7.53;;;;;;;;;;5057639;28;20056;-63
2023/10/13 14:23:45;;;;;;;9.70;7.93;;;;;;;;;;5064824;28;20032;-65
2023/10/13 14:26:15;;;;;;;8.05;7.25;;;;;;;;;;5059772;28;20466;-64
2023/10/13 14:31:26;;;;;;;10.70;7.65;;;;;;;;;;5065540;28;20094;-61
2023/10/13 14:33:53;;;;;;;9.32;6.53;;;;;;;;;;5071742;28;20075;-62
2023/10/13 14:36:22;;;;;;;17.00;7.80;;;;;;;;;;5066878;28;20020;-64
2023/10/13 14:38:51;;;;;;;10.65;7.85;;;;;;;;;;5068890;28;20035;-62
2023/10/13 14:41:18;;;;;;;9.82;7.80;;;;;;;;;;5062813;28;20035;-65
2023/10/13 14:43:48;;;;;;;8.43;7.40;;;;;;;;;;5067762;28;20036;-64
2023/10/13 14:46:17;;;;;;;8.07;7.25;;;;;;;;;;5059209;28;20021;-64
2023/10/13 14:48:43;;;;;;;11.88;8.15;;;;;;;;;;5065122;28;20122;-65
2023/10/13 14:51:12;;;;;;;11.10;7.40;;;;;;;;;;5072358;28;20055;-67
2023/10/13 14:53:42;;;;;;;9.73;7.03;;;;;;;;;;5072297;28;20486;-68
2023/10/13 14:56:08;;;;;;;8.65;7.70;;;;;;;;;;5056710;28;20044;-69
2023/10/13 14:58:34;;;;;;;11.80;7.50;;;;;;;;;;5072866;28;20040;-68
2023/10/13 15:01:16;;;;;;;9.48;7.25;;;;;;;;;;5068790;28;20017;-69
2023/10/13 15:03:43;;;;;;;11.95;7.78;;;;;;;;;;5054980;28;20025;-68
2023/10/13 15:06:29;;;;;;;10.43;7.88;;;;;;;;;;5067939;28;20078;-68
2023/10/13 15:08:57;;;;;;;11.98;7.65;;;;;;;;;;5068560;28;20068;-68
2023/10/13 15:11:26;;;;;;;11.15;8.07;;;;;;;;;;5061776;28;20099;-68
2023/10/13 15:13:56;;;;;;;9.52;7.30;;;;;;;;;;5072622;28;20080;-68
2023/10/13 15:16:23;;;;;;;10.88;7.95;;;;;;;;;;5072554;28;20473;-68
2023/10/13 15:18:52;;;;;;;8.82;7.70;;;;;;;;;;5072358;28;20034;-68
2023/10/13 15:21:21;;;;;;;12.25;7.80;;;;;;;;;;5072332;28;20031;-68
2023/10/13 15:23:47;;;;;;;10.05;7.45;;;;;;;;;;5072739;28;20089;-68
2023/10/13 15:26:14;;;;;;;9.45;7.35;;;;;;;;;;5070698;28;20024;-68
2023/10/13 15:28:48;;;;;;;9.65;6.88;;;;;;;;;;5058796;28;20041;-68
2023/10/13 15:31:26;;;;;;;;;;;;;;;;;;5072533;28;20025;-68
2023/10/13 15:33:54;;;;;;;9.63;7.75;;;;;;;;;;5054231;28;19904;-68
2023/10/13 15:36:20;;;;;;;8.98;8.07;;;;;;;;;;5072190;28;20048;-68
2023/10/13 15:38:46;;;;;;;8.60;7.38;;;;;;;;;;5065105;28;20017;-68
2023/10/13 15:41:13;;;;;;;10.68;8.02;;;;;;;;;;5063530;28;20036;-68
2023/10/13 15:43:49;;;;;;;12.27;8.95;;;;;;;;;;5070585;28;20020;-68
2023/10/13 15:46:18;;;;;;;10.45;8.40;;;;;;;;;;5072392;28;20039;-67
2023/10/13 15:48:45;;;;;;;10.80;8.82;;;;;;;;;;5071856;28;20036;-64
2023/10/13 15:51:15;;;;;;;10.13;7.75;;;;;;;;;;5070600;28;20024;-65
2023/10/13 15:53:43;;;;;;;8.73;7.93;;;;;;;;;;5066876;28;20029;-68
2023/10/13 15:56:12;;;;;;;10.45;8.68;;;;;;;;;;5072780;28;20017;-68
2023/10/13 15:58:47;;;;;;;9.57;8.05;;;;;;;;;;5072007;28;20046;-68
2023/10/13 16:01:13;;;;;;;10.98;8.77;;;;;;;;;;5072305;28;20107;-68
2023/10/13 16:03:44;;;;;;;9.38;8.35;;;;;;;;;;5072629;28;20024;-68
2023/10/13 16:06:13;;;;;;;10.60;8.23;;;;;;;;;;5071039;28;20031;-69
2023/10/13 16:08:43;;;;;;;9.77;7.78;;;;;;;;;;5072007;28;20044;-68
2023/10/13 16:11:19;;;;;;;8.73;7.57;;;;;;;;;;5057925;28;20594;-62
2023/10/13 16:13:46;;;;;;;8.80;7.18;;;37.00;99.90;;;;;;5071705;28;20031;-61
2023/10/13 16:19:34;;;;;;;11.90;8.38;;;37.80;99.90;;;;;;5069628;28;20040;-61
2023/10/13 16:21:59;;;;;;;9.38;7.47;;;37.70;99.90;;;;;;5071518;28;20017;-62
2023/10/13 16:24:25;;;;;;;12.23;8.43;;;37.80;99.90;;;;;;5071596;28;20085;-61
2023/10/13 16:26:55;;;;;;;9.13;7.97;;;37.70;99.90;;;;;;5071856;28;20027;-62
2023/10/13 16:29:22;;;;;;;8.98;7.97;;;37.80;99.90;;;;;;5071503;28;20035;-61
2023/10/13 16:31:51;;;;;;;8.73;7.90;;;37.70;99.90;;;;;;5071633;28;20380;-61
2023/10/13 16:34:18;;;;;;;11.23;9.10;;;37.70;99.90;;;;;;5071500;28;20103;-61
2023/10/13 16:36:45;;;;;;;17.17;8.85;;;37.70;99.90;;;;;;5071534;28;20081;-61
2023/10/13 16:39:11;;;;;;;16.20;8.68;;;;;;;;;;5070622;28;20052;-61
2023/10/13 16:41:37;;;;;;;12.20;8.85;;;;;;;;;;5070122;28;20521;-61
2023/10/13 16:44:09;;;;;;;13.40;9.40;;;;;;;;;;5070075;28;20414;-62
2023/10/13 16:46:36;;;;;;;14.40;8.90;;;;;;;;;;5068077;28;20029;-62
2023/10/13 16:49:02;;;;;;;12.10;9.00;;;;;;;;;;5067623;28;20270;-62
2023/10/13 16:51:29;;;;;;;15.45;10.45;;;37.70;99.90;;;;;;5065948;28;20021;-61
2023/10/13 16:53:54;;;;;;;16.65;10.52;;;37.60;99.90;;;;;;5068535;28;20036;-61
2023/10/13 16:56:22;;;;;;;13.40;10.52;;;37.60;99.90;;;;;;5069538;28;20021;-61
2023/10/13 16:58:47;;;;;;;12.52;10.65;;;37.50;99.90;;;;;;5052855;28;20032;-61
2023/10/13 17:01:21;;;;;;;15.00;10.70;;;37.50;99.90;;;;;;5071111;28;20048;-61
2023/10/13 17:03:49;;;;;;;12.80;10.55;;;37.50;99.90;;;;;;5057789;28;20031;-61
2023/10/13 17:06:15;;;;;;;16.02;10.43;;;37.50;99.90;;;;;;5055493;28;20021;-61
2023/10/13 17:12:18;;;;;;;13.63;9.60;;;37.50;99.90;;;;;;5068988;28;20078;-61
2023/10/13 17:14:44;;;;;;;12.30;10.18;;;37.50;99.90;;;;;;5071098;28;20035;-62
2023/10/13 17:17:09;;;;;;;13.82;9.95;;;37.50;99.90;;;;;;5070953;28;20021;-61
2023/10/13 17:19:35;;;;;;;13.63;10.38;;;37.50;99.90;;;;;;5070969;28;20048;-61
2023/10/13 17:22:03;;;;;;;15.45;9.95;;;37.50;99.90;;;;;;5070834;28;20032;-62
2023/10/13 17:24:31;;;;;;;12.90;8.45;;;37.40;99.90;;;;;;5070996;28;20162;-62
2023/10/13 17:27:00;;;;;;;15.85;9.85;;;37.40;99.90;;;;;;5060615;28;20016;-62
2023/10/13 17:29:28;;;;;;;16.17;9.68;;;37.40;99.90;;;;;;5074450;28;20036;-62
2023/10/13 17:31:54;;;;;;;14.68;10.63;;;37.30;99.90;;;;;;5074308;28;20139;-62
2023/10/13 17:34:20;;;;;;;12.27;8.85;;;37.30;99.90;;;;;;5074494;28;20033;-62
2023/10/13 17:36:48;;;;;;;16.42;8.63;;;37.30;99.90;;;;;;5074189;28;20371;-62
2023/10/13 17:39:17;;;;;;;14.88;9.27;;;37.20;99.90;;;;;;5074156;28;20056;-62
2023/10/13 17:41:44;;;;;;;12.70;8.20;;;37.20;99.90;;;;;;5074109;28;20047;-62
2023/10/13 17:44:10;;;;;;;12.70;8.18;;;37.30;99.90;;;;;;5072730;28;20028;-62
2023/10/13 17:46:38;;;;;;;11.50;8.05;;;37.20;99.90;;;;;;5074135;28;20025;-62
2023/10/13 17:52:26;;;;;;;14.18;7.63;;;37.20;99.90;;;;;;5067393;28;20059;-62
2023/10/13 17:54:52;;;;;;;10.77;7.78;;;37.20;99.90;;;;;;5074056;28;20470;-62
2023/10/13 17:57:17;;;;;;;12.43;6.97;;;37.30;99.90;;;;;;5073942;28;20028;-62